sensor_id;sensor_type;location;lat;lon;timestamp;P1;durP1;ratioP1;P2;durP2;ratioP2
34242;SDS011;20504;43.214;27.920;2022-09-09T00:01:15;4.80;;;2.50;;
34242;SDS011;20504;43.214;27.920;2022-09-09T00:10:36;5.55;;;2.72;;
34242;SDS011;20504;43.214;27.920;2022-09-09T00:21:40;5.70;;;2.92;;
34242;SDS011;20504;43.214;27.920;2022-09-09T00:24:32;4.43;;;2.83;;
34242;SDS011;20504;43.214;27.920;2022-09-09T00:27:13;4.05;;;2.78;;
34242;SDS011;20504;43.214;27.920;2022-09-09T00:29:49;6.45;;;2.78;;
34242;SDS011;20504;43.214;27.920;2022-09-09T00:32:19;5.30;;;2.65;;
34242;SDS011;20504;43.214;27.920;2022-09-09T00:34:48;7.13;;;2.95;;
34242;SDS011;20504;43.214;27.920;2022-09-09T00:37:17;7.13;;;3.40;;
34242;SDS011;20504;43.214;27.920;2022-09-09T00:39:50;8.02;;;3.53;;
34242;SDS011;20504;43.214;27.920;2022-09-09T00:48:09;3.15;;;2.42;;
34242;SDS011;20504;43.214;27.920;2022-09-09T00:56:20;4.03;;;2.58;;
34242;SDS011;20504;43.214;27.920;2022-09-09T00:59:02;5.65;;;2.95;;
34242;SDS011;20504;43.214;27.920;2022-09-09T01:01:53;2.85;;;2.53;;
34242;SDS011;20504;43.214;27.920;2022-09-09T01:04:25;4.22;;;2.67;;
34242;SDS011;20504;43.214;27.920;2022-09-09T01:07:06;4.22;;;2.40;;
34242;SDS011;20504;43.214;27.920;2022-09-09T01:12:42;5.72;;;2.63;;
34242;SDS011;20504;43.214;27.920;2022-09-09T01:15:17;6.55;;;2.67;;
34242;SDS011;20504;43.214;27.920;2022-09-09T01:17:51;6.05;;;2.58;;
34242;SDS011;20504;43.214;27.920;2022-09-09T01:20:31;6.82;;;2.60;;
34242;SDS011;20504;43.214;27.920;2022-09-09T01:26:29;5.07;;;2.83;;
34242;SDS011;20504;43.214;27.920;2022-09-09T01:28:59;5.57;;;2.90;;
34242;SDS011;20504;43.214;27.920;2022-09-09T01:31:28;3.58;;;2.53;;
34242;SDS011;20504;43.214;27.920;2022-09-09T01:34:13;4.93;;;2.53;;
34242;SDS011;20504;43.214;27.920;2022-09-09T01:39:22;5.55;;;2.47;;
34242;SDS011;20504;43.214;27.920;2022-09-09T01:42:04;3.70;;;2.50;;
34242;SDS011;20504;43.214;27.920;2022-09-09T01:44:31;6.15;;;3.00;;
34242;SDS011;20504;43.214;27.920;2022-09-09T01:46:57;5.78;;;2.42;;
34242;SDS011;20504;43.214;27.920;2022-09-09T01:49:23;5.50;;;2.63;;
34242;SDS011;20504;43.214;27.920;2022-09-09T01:51:50;5.03;;;2.77;;
34242;SDS011;20504;43.214;27.920;2022-09-09T01:54:18;5.53;;;2.53;;
34242;SDS011;20504;43.214;27.920;2022-09-09T02:02:26;4.65;;;2.80;;
34242;SDS011;20504;43.214;27.920;2022-09-09T02:05:07;4.45;;;3.03;;
34242;SDS011;20504;43.214;27.920;2022-09-09T02:07:50;4.80;;;2.33;;
34242;SDS011;20504;43.214;27.920;2022-09-09T02:10:33;5.28;;;2.58;;
34242;SDS011;20504;43.214;27.920;2022-09-09T02:13:21;3.45;;;2.50;;
34242;SDS011;20504;43.214;27.920;2022-09-09T02:16:08;4.65;;;2.60;;
34242;SDS011;20504;43.214;27.920;2022-09-09T02:23:53;4.68;;;2.88;;
34242;SDS011;20504;43.214;27.920;2022-09-09T02:26:21;5.43;;;2.40;;
34242;SDS011;20504;43.214;27.920;2022-09-09T02:28:55;4.82;;;2.70;;
34242;SDS011;20504;43.214;27.920;2022-09-09T02:31:27;4.75;;;2.78;;
34242;SDS011;20504;43.214;27.920;2022-09-09T02:34:07;6.38;;;3.17;;
34242;SDS011;20504;43.214;27.920;2022-09-09T02:36:57;6.65;;;2.72;;
34242;SDS011;20504;43.214;27.920;2022-09-09T02:39:31;5.30;;;2.90;;
34242;SDS011;20504;43.214;27.920;2022-09-09T02:42:07;4.32;;;2.42;;
34242;SDS011;20504;43.214;27.920;2022-09-09T02:44:43;3.97;;;2.80;;
34242;SDS011;20504;43.214;27.920;2022-09-09T02:50:38;6.38;;;2.97;;
34242;SDS011;20504;43.214;27.920;2022-09-09T02:53:02;5.68;;;2.70;;
34242;SDS011;20504;43.214;27.920;2022-09-09T02:58:45;9.00;;;2.95;;
34242;SDS011;20504;43.214;27.920;2022-09-09T03:01:12;11.60;;;2.92;;
34242;SDS011;20504;43.214;27.920;2022-09-09T03:03:38;3.85;;;3.17;;
34242;SDS011;20504;43.214;27.920;2022-09-09T03:06:06;6.03;;;2.97;;
34242;SDS011;20504;43.214;27.920;2022-09-09T03:08:39;8.93;;;3.25;;
34242;SDS011;20504;43.214;27.920;2022-09-09T03:11:05;5.13;;;2.80;;
34242;SDS011;20504;43.214;27.920;2022-09-09T03:13:34;5.38;;;3.58;;
34242;SDS011;20504;43.214;27.920;2022-09-09T03:16:00;7.38;;;3.22;;
34242;SDS011;20504;43.214;27.920;2022-09-09T03:18:35;9.20;;;3.05;;
34242;SDS011;20504;43.214;27.920;2022-09-09T03:21:03;6.90;;;3.78;;
34242;SDS011;20504;43.214;27.920;2022-09-09T03:23:30;5.93;;;3.35;;
34242;SDS011;20504;43.214;27.920;2022-09-09T03:25:58;5.47;;;3.63;;
34242;SDS011;20504;43.214;27.920;2022-09-09T03:28:26;6.68;;;3.60;;
34242;SDS011;20504;43.214;27.920;2022-09-09T03:31:04;12.68;;;3.53;;
34242;SDS011;20504;43.214;27.920;2022-09-09T03:33:37;8.25;;;3.85;;
34242;SDS011;20504;43.214;27.920;2022-09-09T03:36:12;10.52;;;4.00;;
34242;SDS011;20504;43.214;27.920;2022-09-09T03:38:41;9.35;;;3.67;;
34242;SDS011;20504;43.214;27.920;2022-09-09T03:41:12;7.95;;;3.40;;
34242;SDS011;20504;43.214;27.920;2022-09-09T03:43:41;9.43;;;3.88;;
34242;SDS011;20504;43.214;27.920;2022-09-09T03:46:06;7.20;;;3.67;;
34242;SDS011;20504;43.214;27.920;2022-09-09T03:48:32;11.10;;;4.90;;
34242;SDS011;20504;43.214;27.920;2022-09-09T03:51:05;11.25;;;4.88;;
34242;SDS011;20504;43.214;27.920;2022-09-09T03:53:50;11.43;;;5.50;;
34242;SDS011;20504;43.214;27.920;2022-09-09T03:56:22;13.73;;;6.67;;
34242;SDS011;20504;43.214;27.920;2022-09-09T03:58:47;13.45;;;5.70;;
34242;SDS011;20504;43.214;27.920;2022-09-09T04:01:13;13.47;;;5.93;;
34242;SDS011;20504;43.214;27.920;2022-09-09T04:03:39;14.07;;;5.32;;
34242;SDS011;20504;43.214;27.920;2022-09-09T04:06:06;11.43;;;5.00;;
34242;SDS011;20504;43.214;27.920;2022-09-09T04:08:39;12.23;;;5.30;;
34242;SDS011;20504;43.214;27.920;2022-09-09T04:14:24;13.90;;;5.60;;
34242;SDS011;20504;43.214;27.920;2022-09-09T04:16:57;11.90;;;5.50;;
34242;SDS011;20504;43.214;27.920;2022-09-09T04:22:04;14.18;;;5.35;;
34242;SDS011;20504;43.214;27.920;2022-09-09T04:24:29;13.23;;;5.53;;
34242;SDS011;20504;43.214;27.920;2022-09-09T04:27:07;17.57;;;6.70;;
34242;SDS011;20504;43.214;27.920;2022-09-09T04:29:42;14.67;;;6.50;;
34242;SDS011;20504;43.214;27.920;2022-09-09T04:32:14;18.65;;;5.85;;
34242;SDS011;20504;43.214;27.920;2022-09-09T04:34:50;15.35;;;6.88;;
34242;SDS011;20504;43.214;27.920;2022-09-09T04:37:23;22.58;;;6.63;;
34242;SDS011;20504;43.214;27.920;2022-09-09T04:39:52;20.75;;;6.63;;
34242;SDS011;20504;43.214;27.920;2022-09-09T04:44:46;18.10;;;5.82;;
34242;SDS011;20504;43.214;27.920;2022-09-09T04:47:11;17.97;;;5.73;;
34242;SDS011;20504;43.214;27.920;2022-09-09T04:49:38;13.93;;;5.82;;
34242;SDS011;20504;43.214;27.920;2022-09-09T04:52:04;36.45;;;6.88;;
34242;SDS011;20504;43.214;27.920;2022-09-09T04:54:29;19.83;;;6.33;;
34242;SDS011;20504;43.214;27.920;2022-09-09T04:56:55;22.40;;;7.00;;
34242;SDS011;20504;43.214;27.920;2022-09-09T04:59:21;22.43;;;7.20;;
34242;SDS011;20504;43.214;27.920;2022-09-09T05:01:50;18.33;;;6.53;;
34242;SDS011;20504;43.214;27.920;2022-09-09T05:04:16;24.97;;;6.10;;
34242;SDS011;20504;43.214;27.920;2022-09-09T05:06:41;16.47;;;6.37;;
34242;SDS011;20504;43.214;27.920;2022-09-09T05:09:07;18.73;;;5.43;;
34242;SDS011;20504;43.214;27.920;2022-09-09T05:11:34;19.48;;;5.30;;
34242;SDS011;20504;43.214;27.920;2022-09-09T05:14:03;15.77;;;6.35;;
34242;SDS011;20504;43.214;27.920;2022-09-09T05:16:29;20.92;;;6.13;;
34242;SDS011;20504;43.214;27.920;2022-09-09T05:18:55;12.93;;;4.00;;
34242;SDS011;20504;43.214;27.920;2022-09-09T05:21:24;7.40;;;2.72;;
34242;SDS011;20504;43.214;27.920;2022-09-09T05:23:54;9.23;;;2.35;;
34242;SDS011;20504;43.214;27.920;2022-09-09T05:26:26;4.45;;;1.88;;
34242;SDS011;20504;43.214;27.920;2022-09-09T05:29:01;6.93;;;2.30;;
34242;SDS011;20504;43.214;27.920;2022-09-09T05:31:29;6.37;;;2.30;;
34242;SDS011;20504;43.214;27.920;2022-09-09T05:33:55;5.13;;;2.38;;
34242;SDS011;20504;43.214;27.920;2022-09-09T05:36:21;6.37;;;2.30;;
34242;SDS011;20504;43.214;27.920;2022-09-09T05:38:49;3.92;;;2.90;;
34242;SDS011;20504;43.214;27.920;2022-09-09T05:41:15;6.25;;;2.45;;
34242;SDS011;20504;43.214;27.920;2022-09-09T05:43:42;7.60;;;2.63;;
34242;SDS011;20504;43.214;27.920;2022-09-09T05:46:15;5.90;;;2.50;;
34242;SDS011;20504;43.214;27.920;2022-09-09T05:48:46;5.38;;;2.40;;
34242;SDS011;20504;43.214;27.920;2022-09-09T05:51:19;10.32;;;2.65;;
34242;SDS011;20504;43.214;27.920;2022-09-09T05:54:00;5.80;;;2.47;;
34242;SDS011;20504;43.214;27.920;2022-09-09T05:56:27;3.23;;;1.90;;
34242;SDS011;20504;43.214;27.920;2022-09-09T05:59:00;3.28;;;2.20;;
34242;SDS011;20504;43.214;27.920;2022-09-09T06:04:11;7.82;;;2.33;;
34242;SDS011;20504;43.214;27.920;2022-09-09T06:06:57;5.22;;;2.33;;
34242;SDS011;20504;43.214;27.920;2022-09-09T06:09:25;4.60;;;2.20;;
34242;SDS011;20504;43.214;27.920;2022-09-09T06:11:53;5.00;;;2.03;;
34242;SDS011;20504;43.214;27.920;2022-09-09T06:14:19;4.67;;;1.87;;
34242;SDS011;20504;43.214;27.920;2022-09-09T06:16:48;5.60;;;1.90;;
34242;SDS011;20504;43.214;27.920;2022-09-09T06:19:15;2.13;;;1.50;;
34242;SDS011;20504;43.214;27.920;2022-09-09T06:21:41;6.00;;;2.10;;
34242;SDS011;20504;43.214;27.920;2022-09-09T06:24:09;5.72;;;2.08;;
34242;SDS011;20504;43.214;27.920;2022-09-09T06:26:38;6.50;;;2.33;;
34242;SDS011;20504;43.214;27.920;2022-09-09T06:29:08;5.10;;;2.38;;
34242;SDS011;20504;43.214;27.920;2022-09-09T06:31:35;6.93;;;2.15;;
34242;SDS011;20504;43.214;27.920;2022-09-09T06:34:03;6.18;;;2.05;;
34242;SDS011;20504;43.214;27.920;2022-09-09T06:36:36;3.42;;;2.10;;
34242;SDS011;20504;43.214;27.920;2022-09-09T06:39:13;5.15;;;1.80;;
34242;SDS011;20504;43.214;27.920;2022-09-09T06:41:40;8.43;;;2.30;;
34242;SDS011;20504;43.214;27.920;2022-09-09T06:44:07;4.15;;;2.22;;
34242;SDS011;20504;43.214;27.920;2022-09-09T06:51:58;6.07;;;2.20;;
34242;SDS011;20504;43.214;27.920;2022-09-09T07:00:30;7.88;;;2.35;;
34242;SDS011;20504;43.214;27.920;2022-09-09T07:03:19;9.25;;;2.47;;
34242;SDS011;20504;43.214;27.920;2022-09-09T07:06:03;4.85;;;1.98;;
34242;SDS011;20504;43.214;27.920;2022-09-09T07:08:57;4.03;;;2.53;;
34242;SDS011;20504;43.214;27.920;2022-09-09T07:11:28;6.03;;;2.55;;
34242;SDS011;20504;43.214;27.920;2022-09-09T07:14:02;2.38;;;1.73;;
34242;SDS011;20504;43.214;27.920;2022-09-09T07:16:32;3.50;;;2.28;;
34242;SDS011;20504;43.214;27.920;2022-09-09T07:19:04;4.82;;;2.13;;
34242;SDS011;20504;43.214;27.920;2022-09-09T07:21:33;2.78;;;1.90;;
34242;SDS011;20504;43.214;27.920;2022-09-09T07:26:28;5.53;;;3.42;;
34242;SDS011;20504;43.214;27.920;2022-09-09T07:28:58;9.00;;;2.65;;
34242;SDS011;20504;43.214;27.920;2022-09-09T07:40:09;3.05;;;2.00;;
34242;SDS011;20504;43.214;27.920;2022-09-09T07:42:56;3.10;;;1.98;;
34242;SDS011;20504;43.214;27.920;2022-09-09T07:45:44;4.07;;;1.80;;
34242;SDS011;20504;43.214;27.920;2022-09-09T07:48:16;3.70;;;1.92;;
34242;SDS011;20504;43.214;27.920;2022-09-09T07:51:04;3.42;;;1.98;;
34242;SDS011;20504;43.214;27.920;2022-09-09T07:56:42;4.18;;;1.90;;
34242;SDS011;20504;43.214;27.920;2022-09-09T07:59:53;4.05;;;1.80;;
34242;SDS011;20504;43.214;27.920;2022-09-09T08:06:18;3.53;;;2.00;;
34242;SDS011;20504;43.214;27.920;2022-09-09T08:08:52;4.32;;;1.80;;
34242;SDS011;20504;43.214;27.920;2022-09-09T08:15:08;2.45;;;1.92;;
34242;SDS011;20504;43.214;27.920;2022-09-09T08:18:08;2.95;;;1.60;;
34242;SDS011;20504;43.214;27.920;2022-09-09T08:24:33;6.07;;;2.13;;
34242;SDS011;20504;43.214;27.920;2022-09-09T08:27:41;4.32;;;1.70;;
34242;SDS011;20504;43.214;27.920;2022-09-09T08:31:21;4.38;;;1.63;;
34242;SDS011;20504;43.214;27.920;2022-09-09T08:34:22;2.90;;;1.60;;
34242;SDS011;20504;43.214;27.920;2022-09-09T08:37:14;4.18;;;2.33;;
34242;SDS011;20504;43.214;27.920;2022-09-09T08:40:09;5.40;;;1.90;;
34242;SDS011;20504;43.214;27.920;2022-09-09T08:46:14;5.35;;;1.70;;
34242;SDS011;20504;43.214;27.920;2022-09-09T08:49:10;3.85;;;1.92;;
34242;SDS011;20504;43.214;27.920;2022-09-09T08:52:37;6.95;;;1.70;;
34242;SDS011;20504;43.214;27.920;2022-09-09T08:55:58;1.80;;;1.70;;
34242;SDS011;20504;43.214;27.920;2022-09-09T09:16:26;4.88;;;2.05;;
34242;SDS011;20504;43.214;27.920;2022-09-09T09:19:14;2.28;;;1.65;;
34242;SDS011;20504;43.214;27.920;2022-09-09T09:36:11;4.25;;;1.60;;
34242;SDS011;20504;43.214;27.920;2022-09-09T09:38:40;2.65;;;1.50;;
34242;SDS011;20504;43.214;27.920;2022-09-09T09:49:09;3.28;;;1.67;;
34242;SDS011;20504;43.214;27.920;2022-09-09T09:51:35;5.10;;;1.80;;
34242;SDS011;20504;43.214;27.920;2022-09-09T09:56:43;4.75;;;1.85;;
34242;SDS011;20504;43.214;27.920;2022-09-09T10:02:10;3.28;;;1.75;;
34242;SDS011;20504;43.214;27.920;2022-09-09T10:04:38;2.63;;;1.70;;
34242;SDS011;20504;43.214;27.920;2022-09-09T10:07:11;4.07;;;2.00;;
34242;SDS011;20504;43.214;27.920;2022-09-09T10:09:52;3.03;;;1.60;;
34242;SDS011;20504;43.214;27.920;2022-09-09T10:40:58;3.60;;;2.05;;
34242;SDS011;20504;43.214;27.920;2022-09-09T10:54:35;5.87;;;2.20;;
34242;SDS011;20504;43.214;27.920;2022-09-09T10:57:21;2.95;;;1.52;;
34242;SDS011;20504;43.214;27.920;2022-09-09T11:03:20;8.35;;;1.88;;
34242;SDS011;20504;43.214;27.920;2022-09-09T11:06:06;4.93;;;2.50;;
34242;SDS011;20504;43.214;27.920;2022-09-09T11:08:41;5.25;;;2.40;;
34242;SDS011;20504;43.214;27.920;2022-09-09T11:11:25;2.33;;;1.38;;
34242;SDS011;20504;43.214;27.920;2022-09-09T11:14:02;3.47;;;1.50;;
34242;SDS011;20504;43.214;27.920;2022-09-09T11:16:41;5.20;;;1.67;;
34242;SDS011;20504;43.214;27.920;2022-09-09T11:25:00;3.25;;;1.50;;
34242;SDS011;20504;43.214;27.920;2022-09-09T11:30:22;4.80;;;2.13;;
34242;SDS011;20504;43.214;27.920;2022-09-09T11:36:24;7.20;;;1.92;;
34242;SDS011;20504;43.214;27.920;2022-09-09T11:42:15;6.32;;;1.95;;
34242;SDS011;20504;43.214;27.920;2022-09-09T11:44:57;3.42;;;1.90;;
34242;SDS011;20504;43.214;27.920;2022-09-09T11:47:35;4.53;;;2.10;;
34242;SDS011;20504;43.214;27.920;2022-09-09T11:53:24;3.95;;;1.85;;
34242;SDS011;20504;43.214;27.920;2022-09-09T11:56:24;3.53;;;1.92;;
34242;SDS011;20504;43.214;27.920;2022-09-09T12:02:33;7.95;;;1.48;;
34242;SDS011;20504;43.214;27.920;2022-09-09T12:05:35;5.68;;;2.40;;
34242;SDS011;20504;43.214;27.920;2022-09-09T12:08:09;4.35;;;1.80;;
34242;SDS011;20504;43.214;27.920;2022-09-09T12:10:53;4.03;;;1.42;;
34242;SDS011;20504;43.214;27.920;2022-09-09T12:13:29;4.95;;;1.60;;
34242;SDS011;20504;43.214;27.920;2022-09-09T12:16:40;3.22;;;1.75;;
34242;SDS011;20504;43.214;27.920;2022-09-09T12:19:32;3.78;;;1.45;;
34242;SDS011;20504;43.214;27.920;2022-09-09T12:28:06;4.05;;;1.73;;
34242;SDS011;20504;43.214;27.920;2022-09-09T12:30:57;4.43;;;1.60;;
34242;SDS011;20504;43.214;27.920;2022-09-09T12:33:34;4.97;;;1.65;;
34242;SDS011;20504;43.214;27.920;2022-09-09T12:36:02;6.53;;;1.77;;
34242;SDS011;20504;43.214;27.920;2022-09-09T12:38:39;2.80;;;1.60;;
34242;SDS011;20504;43.214;27.920;2022-09-09T12:41:24;3.95;;;1.48;;
34242;SDS011;20504;43.214;27.920;2022-09-09T12:47:22;6.35;;;1.75;;
34242;SDS011;20504;43.214;27.920;2022-09-09T12:50:17;2.78;;;1.40;;
34242;SDS011;20504;43.214;27.920;2022-09-09T12:52:56;4.18;;;1.80;;
34242;SDS011;20504;43.214;27.920;2022-09-09T12:58:53;5.22;;;1.40;;
34242;SDS011;20504;43.214;27.920;2022-09-09T13:03:55;5.03;;;1.85;;
34242;SDS011;20504;43.214;27.920;2022-09-09T13:06:30;4.18;;;2.05;;
34242;SDS011;20504;43.214;27.920;2022-09-09T13:08:59;6.90;;;1.83;;
34242;SDS011;20504;43.214;27.920;2022-09-09T13:11:42;2.85;;;1.70;;
34242;SDS011;20504;43.214;27.920;2022-09-09T13:14:32;5.20;;;1.90;;
34242;SDS011;20504;43.214;27.920;2022-09-09T13:17:48;3.92;;;1.70;;
34242;SDS011;20504;43.214;27.920;2022-09-09T13:20:18;4.15;;;1.83;;
34242;SDS011;20504;43.214;27.920;2022-09-09T13:25:39;6.50;;;1.70;;
34242;SDS011;20504;43.214;27.920;2022-09-09T13:28:18;5.90;;;2.13;;
34242;SDS011;20504;43.214;27.920;2022-09-09T13:31:06;4.68;;;1.75;;
34242;SDS011;20504;43.214;27.920;2022-09-09T13:33:51;5.65;;;1.80;;
34242;SDS011;20504;43.214;27.920;2022-09-09T13:38:58;4.03;;;1.60;;
34242;SDS011;20504;43.214;27.920;2022-09-09T13:41:44;2.90;;;2.15;;
34242;SDS011;20504;43.214;27.920;2022-09-09T13:44:21;6.57;;;2.20;;
34242;SDS011;20504;43.214;27.920;2022-09-09T13:47:06;3.15;;;1.63;;
34242;SDS011;20504;43.214;27.920;2022-09-09T13:49:57;4.60;;;2.30;;
34242;SDS011;20504;43.214;27.920;2022-09-09T13:52:23;6.00;;;2.75;;
34242;SDS011;20504;43.214;27.920;2022-09-09T13:54:54;5.85;;;2.78;;
34242;SDS011;20504;43.214;27.920;2022-09-09T13:57:25;6.75;;;2.88;;
34242;SDS011;20504;43.214;27.920;2022-09-09T13:59:51;4.03;;;2.17;;
34242;SDS011;20504;43.214;27.920;2022-09-09T14:02:20;3.55;;;2.45;;
34242;SDS011;20504;43.214;27.920;2022-09-09T14:04:50;6.43;;;2.70;;
34242;SDS011;20504;43.214;27.920;2022-09-09T14:07:24;3.88;;;2.38;;
34242;SDS011;20504;43.214;27.920;2022-09-09T14:09:51;8.77;;;2.75;;
34242;SDS011;20504;43.214;27.920;2022-09-09T14:12:18;3.55;;;2.80;;
34242;SDS011;20504;43.214;27.920;2022-09-09T14:14:45;4.55;;;3.15;;
34242;SDS011;20504;43.214;27.920;2022-09-09T14:17:14;4.32;;;2.70;;
34242;SDS011;20504;43.214;27.920;2022-09-09T14:19:40;4.55;;;2.42;;
34242;SDS011;20504;43.214;27.920;2022-09-09T14:22:05;6.78;;;2.70;;
34242;SDS011;20504;43.214;27.920;2022-09-09T14:27:00;5.53;;;3.25;;
34242;SDS011;20504;43.214;27.920;2022-09-09T14:29:28;3.00;;;2.30;;
34242;SDS011;20504;43.214;27.920;2022-09-09T14:31:54;4.88;;;2.72;;
34242;SDS011;20504;43.214;27.920;2022-09-09T14:34:26;4.68;;;2.40;;
34242;SDS011;20504;43.214;27.920;2022-09-09T14:36:54;4.93;;;2.70;;
34242;SDS011;20504;43.214;27.920;2022-09-09T14:39:19;5.20;;;2.70;;
34242;SDS011;20504;43.214;27.920;2022-09-09T14:41:46;4.43;;;2.97;;
34242;SDS011;20504;43.214;27.920;2022-09-09T14:44:27;7.47;;;3.30;;
34242;SDS011;20504;43.214;27.920;2022-09-09T14:46:54;6.57;;;2.80;;
34242;SDS011;20504;43.214;27.920;2022-09-09T14:49:20;5.10;;;2.58;;
34242;SDS011;20504;43.214;27.920;2022-09-09T14:51:46;6.97;;;2.80;;
34242;SDS011;20504;43.214;27.920;2022-09-09T14:54:13;5.43;;;2.95;;
34242;SDS011;20504;43.214;27.920;2022-09-09T15:02:27;7.40;;;3.08;;
34242;SDS011;20504;43.214;27.920;2022-09-09T15:04:56;6.32;;;2.92;;
34242;SDS011;20504;43.214;27.920;2022-09-09T15:07:25;7.35;;;3.03;;
34242;SDS011;20504;43.214;27.920;2022-09-09T15:09:54;3.75;;;2.80;;
34242;SDS011;20504;43.214;27.920;2022-09-09T15:14:50;3.17;;;2.60;;
34242;SDS011;20504;43.214;27.920;2022-09-09T15:17:21;5.65;;;2.70;;
34242;SDS011;20504;43.214;27.920;2022-09-09T15:19:49;4.32;;;2.50;;
34242;SDS011;20504;43.214;27.920;2022-09-09T15:22:16;3.22;;;2.20;;
34242;SDS011;20504;43.214;27.920;2022-09-09T15:24:45;6.20;;;2.97;;
34242;SDS011;20504;43.214;27.920;2022-09-09T15:27:22;4.57;;;2.88;;
34242;SDS011;20504;43.214;27.920;2022-09-09T15:29:52;4.75;;;2.78;;
34242;SDS011;20504;43.214;27.920;2022-09-09T15:32:22;5.53;;;3.33;;
34242;SDS011;20504;43.214;27.920;2022-09-09T15:34:55;4.10;;;3.00;;
34242;SDS011;20504;43.214;27.920;2022-09-09T15:37:24;4.13;;;3.42;;
34242;SDS011;20504;43.214;27.920;2022-09-09T15:39:51;4.18;;;3.15;;
34242;SDS011;20504;43.214;27.920;2022-09-09T15:42:22;6.67;;;3.23;;
34242;SDS011;20504;43.214;27.920;2022-09-09T15:44:50;9.50;;;3.78;;
34242;SDS011;20504;43.214;27.920;2022-09-09T15:47:19;4.78;;;3.63;;
34242;SDS011;20504;43.214;27.920;2022-09-09T15:50:01;4.20;;;3.60;;
34242;SDS011;20504;43.214;27.920;2022-09-09T15:52:27;7.53;;;4.07;;
34242;SDS011;20504;43.214;27.920;2022-09-09T15:54:58;7.20;;;3.60;;
34242;SDS011;20504;43.214;27.920;2022-09-09T15:57:37;6.80;;;3.97;;
34242;SDS011;20504;43.214;27.920;2022-09-09T16:00:10;8.38;;;3.28;;
34242;SDS011;20504;43.214;27.920;2022-09-09T16:02:40;6.30;;;4.45;;
34242;SDS011;20504;43.214;27.920;2022-09-09T16:05:06;8.20;;;3.53;;
34242;SDS011;20504;43.214;27.920;2022-09-09T16:07:52;5.68;;;4.00;;
34242;SDS011;20504;43.214;27.920;2022-09-09T16:11:19;10.63;;;4.82;;
34242;SDS011;20504;43.214;27.920;2022-09-09T16:14:05;4.22;;;3.83;;
34242;SDS011;20504;43.214;27.920;2022-09-09T16:16:43;10.68;;;4.63;;
34242;SDS011;20504;43.214;27.920;2022-09-09T16:19:11;8.98;;;4.30;;
34242;SDS011;20504;43.214;27.920;2022-09-09T16:21:43;6.40;;;3.90;;
34242;SDS011;20504;43.214;27.920;2022-09-09T16:24:15;7.07;;;4.22;;
34242;SDS011;20504;43.214;27.920;2022-09-09T16:26:46;10.02;;;4.65;;
34242;SDS011;20504;43.214;27.920;2022-09-09T16:29:19;7.10;;;4.50;;
34242;SDS011;20504;43.214;27.920;2022-09-09T16:31:48;8.15;;;4.38;;
34242;SDS011;20504;43.214;27.920;2022-09-09T16:34:21;8.95;;;4.90;;
34242;SDS011;20504;43.214;27.920;2022-09-09T16:37:04;6.30;;;4.28;;
34242;SDS011;20504;43.214;27.920;2022-09-09T16:39:36;8.13;;;4.32;;
34242;SDS011;20504;43.214;27.920;2022-09-09T16:42:25;6.82;;;3.78;;
34242;SDS011;20504;43.214;27.920;2022-09-09T16:44:51;6.63;;;4.20;;
34242;SDS011;20504;43.214;27.920;2022-09-09T16:47:18;5.35;;;3.30;;
34242;SDS011;20504;43.214;27.920;2022-09-09T16:49:49;6.70;;;3.58;;
34242;SDS011;20504;43.214;27.920;2022-09-09T16:52:15;8.50;;;4.23;;
34242;SDS011;20504;43.214;27.920;2022-09-09T16:54:40;8.17;;;4.00;;
34242;SDS011;20504;43.214;27.920;2022-09-09T16:57:06;7.35;;;4.93;;
34242;SDS011;20504;43.214;27.920;2022-09-09T16:59:33;6.40;;;4.23;;
34242;SDS011;20504;43.214;27.920;2022-09-09T17:02:04;8.70;;;4.63;;
34242;SDS011;20504;43.214;27.920;2022-09-09T17:04:32;11.82;;;4.60;;
34242;SDS011;20504;43.214;27.920;2022-09-09T17:09:27;8.23;;;4.38;;
34242;SDS011;20504;43.214;27.920;2022-09-09T17:11:54;5.00;;;4.07;;
34242;SDS011;20504;43.214;27.920;2022-09-09T17:14:20;6.30;;;4.38;;
34242;SDS011;20504;43.214;27.920;2022-09-09T17:16:50;7.50;;;4.25;;
34242;SDS011;20504;43.214;27.920;2022-09-09T17:19:15;9.93;;;4.10;;
34242;SDS011;20504;43.214;27.920;2022-09-09T17:21:41;5.87;;;4.23;;
34242;SDS011;20504;43.214;27.920;2022-09-09T17:24:07;9.85;;;4.22;;
34242;SDS011;20504;43.214;27.920;2022-09-09T17:26:33;10.83;;;4.30;;
34242;SDS011;20504;43.214;27.920;2022-09-09T17:29:06;8.20;;;4.38;;
34242;SDS011;20504;43.214;27.920;2022-09-09T17:31:31;7.80;;;5.00;;
34242;SDS011;20504;43.214;27.920;2022-09-09T17:33:59;6.95;;;4.50;;
34242;SDS011;20504;43.214;27.920;2022-09-09T17:36:53;8.50;;;4.68;;
34242;SDS011;20504;43.214;27.920;2022-09-09T17:39:37;6.07;;;4.20;;
34242;SDS011;20504;43.214;27.920;2022-09-09T17:42:23;10.35;;;4.53;;
34242;SDS011;20504;43.214;27.920;2022-09-09T17:47:33;6.57;;;4.30;;
34242;SDS011;20504;43.214;27.920;2022-09-09T17:50:00;5.33;;;3.40;;
34242;SDS011;20504;43.214;27.920;2022-09-09T17:52:47;8.18;;;3.88;;
34242;SDS011;20504;43.214;27.920;2022-09-09T17:58:31;5.75;;;4.28;;
34242;SDS011;20504;43.214;27.920;2022-09-09T18:02:13;5.72;;;3.25;;
34242;SDS011;20504;43.214;27.920;2022-09-09T18:04:41;9.15;;;3.88;;
34242;SDS011;20504;43.214;27.920;2022-09-09T18:07:29;8.23;;;3.60;;
34242;SDS011;20504;43.214;27.920;2022-09-09T18:10:22;10.57;;;3.28;;
34242;SDS011;20504;43.214;27.920;2022-09-09T18:16:12;6.70;;;3.28;;
34242;SDS011;20504;43.214;27.920;2022-09-09T18:18:39;9.27;;;3.43;;
34242;SDS011;20504;43.214;27.920;2022-09-09T18:21:06;7.18;;;3.47;;
34242;SDS011;20504;43.214;27.920;2022-09-09T18:23:35;9.45;;;3.50;;
34242;SDS011;20504;43.214;27.920;2022-09-09T18:26:13;8.10;;;3.45;;
34242;SDS011;20504;43.214;27.920;2022-09-09T18:28:42;6.10;;;3.20;;
34242;SDS011;20504;43.214;27.920;2022-09-09T18:31:15;7.45;;;3.70;;
34242;SDS011;20504;43.214;27.920;2022-09-09T18:33:44;9.13;;;3.25;;
34242;SDS011;20504;43.214;27.920;2022-09-09T18:36:12;7.07;;;3.63;;
34242;SDS011;20504;43.214;27.920;2022-09-09T18:38:40;9.60;;;3.17;;
34242;SDS011;20504;43.214;27.920;2022-09-09T18:43:39;9.32;;;4.57;;
34242;SDS011;20504;43.214;27.920;2022-09-09T18:46:12;8.07;;;3.13;;
34242;SDS011;20504;43.214;27.920;2022-09-09T18:48:47;4.95;;;3.03;;
34242;SDS011;20504;43.214;27.920;2022-09-09T18:51:56;8.77;;;3.38;;
34242;SDS011;20504;43.214;27.920;2022-09-09T18:54:26;11.52;;;3.60;;
34242;SDS011;20504;43.214;27.920;2022-09-09T18:57:18;6.43;;;3.20;;
34242;SDS011;20504;43.214;27.920;2022-09-09T18:59:48;9.57;;;3.63;;
34242;SDS011;20504;43.214;27.920;2022-09-09T19:04:51;8.50;;;3.45;;
34242;SDS011;20504;43.214;27.920;2022-09-09T19:07:18;8.20;;;3.60;;
34242;SDS011;20504;43.214;27.920;2022-09-09T19:09:49;6.65;;;3.20;;
34242;SDS011;20504;43.214;27.920;2022-09-09T19:12:16;7.40;;;2.80;;
34242;SDS011;20504;43.214;27.920;2022-09-09T19:14:55;7.93;;;2.85;;
34242;SDS011;20504;43.214;27.920;2022-09-09T19:17:21;7.28;;;3.22;;
34242;SDS011;20504;43.214;27.920;2022-09-09T19:25:16;12.18;;;2.95;;
34242;SDS011;20504;43.214;27.920;2022-09-09T19:27:43;5.28;;;2.58;;
34242;SDS011;20504;43.214;27.920;2022-09-09T19:30:25;6.75;;;2.40;;
34242;SDS011;20504;43.214;27.920;2022-09-09T19:32:56;7.38;;;2.92;;
34242;SDS011;20504;43.214;27.920;2022-09-09T19:35:23;4.95;;;2.30;;
34242;SDS011;20504;43.214;27.920;2022-09-09T19:37:48;9.17;;;3.30;;
34242;SDS011;20504;43.214;27.920;2022-09-09T19:40:14;6.75;;;3.03;;
34242;SDS011;20504;43.214;27.920;2022-09-09T19:42:40;12.27;;;2.72;;
34242;SDS011;20504;43.214;27.920;2022-09-09T19:45:08;5.25;;;2.65;;